Time;durP1;ratioP1;P1;durP2;ratioP2;P2;SDS_P1;SDS_P2;PMS_P1;PMS_P2;Temp;Humidity;BMP_temperature;BMP_pressure;BME280_temperature;BME280_humidity;BME280_pressure;Samples;Min_cycle;Max_cycle;Signal;HPM_P1;HPM_P2
2022/09/24 00:00:56;;;;;;;19.38;11.30;;;10.30;99.90;;;;;;5027861;28;20744;-66
2022/09/24 00:03:24;;;;;;;20.05;10.75;;;10.30;99.90;;;;;;5028424;28;20025;-65
2022/09/24 00:05:50;;;;;;;19.35;11.02;;;10.20;99.90;;;;;;5028242;28;20034;-67
2022/09/24 00:08:18;;;;;;;17.83;10.32;;;10.20;99.90;;;;;;5026496;28;20060;-71
2022/09/24 00:10:45;;;;;;;24.80;10.57;;;10.20;99.90;;;;;;5028418;28;20072;-68
2022/09/24 00:13:13;;;;;;;20.80;10.68;;;10.30;99.90;;;;;;5029490;28;20049;-66
2022/09/24 00:15:43;;;;;;;19.13;10.63;;;10.30;99.90;;;;;;5026701;28;20029;-67
2022/09/24 00:18:10;;;;;;;20.40;10.57;;;10.30;99.90;;;;;;5025599;28;20091;-66
2022/09/24 00:20:37;;;;;;;21.27;10.82;;;10.20;99.90;;;;;;5028866;28;20211;-67
2022/09/24 00:23:04;;;;;;;19.20;10.70;;;10.20;99.90;;;;;;5030205;28;20026;-67
2022/09/24 00:28:14;;;;;;;14.65;9.20;;;10.10;99.90;;;;;;5027431;28;20529;-68
2022/09/24 00:30:42;;;;;;;17.67;10.00;;;10.20;99.90;;;;;;5026996;28;20037;-66
2022/09/24 00:33:08;;;;;;;21.73;10.48;;;10.10;99.90;;;;;;5026521;28;20144;-66
2022/09/24 00:35:36;;;;;;;17.38;10.30;;;10.10;99.90;;;;;;5028419;28;20076;-66
2022/09/24 00:38:03;;;;;;;19.50;9.73;;;10.10;99.90;;;;;;5028047;28;20029;-66
2022/09/24 00:40:33;;;;;;;18.10;10.18;;;10.20;99.90;;;;;;5027461;28;20041;-68
2022/09/24 00:42:59;;;;;;;15.05;9.48;;;10.10;99.90;;;;;;5026590;28;20063;-66
2022/09/24 00:45:26;;;;;;;17.70;9.98;;;10.10;99.90;;;;;;5027270;28;20033;-67
2022/09/24 00:47:53;;;;;;;17.45;10.10;;;10.20;99.90;;;;;;5027995;28;20026;-66
2022/09/24 00:50:26;;;;;;;16.77;9.27;;;10.20;99.90;;;;;;5027209;28;20049;-70
2022/09/24 00:53:04;;;;;;;22.35;11.13;;;10.10;99.90;;;;;;5028783;28;20028;-66
2022/09/24 00:55:32;;;;;;;16.33;9.77;;;10.10;99.90;;;;;;5028237;28;20017;-65
2022/09/24 00:58:04;;;;;;;20.63;10.75;;;10.10;99.90;;;;;;5028782;28;20044;-66
2022/09/24 01:00:31;;;;;;;24.10;11.45;;;10.00;99.90;;;;;;5027439;28;20033;-66
2022/09/24 01:03:08;;;;;;;18.38;10.38;;;10.10;99.90;;;;;;5028425;28;20465;-66
2022/09/24 01:05:35;;;;;;;16.42;9.10;;;10.10;99.90;;;;;;5027010;28;20033;-67
2022/09/24 01:08:01;;;;;;;18.73;10.43;;;10.00;99.90;;;;;;5027610;28;20029;-65
2022/09/24 01:10:50;;;;;;;21.52;10.55;;;10.00;99.90;;;;;;5026784;28;20067;-67
2022/09/24 01:13:32;;;;;;;21.90;9.68;;;10.10;99.90;;;;;;4997931;28;20474;-66
2022/09/24 01:16:16;;;;;;;18.55;9.15;;;10.10;99.90;;;;;;5026239;28;20033;-67
2022/09/24 01:19:01;;;;;;;17.83;10.20;;;10.10;99.90;;;;;;5028834;28;20029;-65
2022/09/24 01:21:46;;;;;;;17.27;9.43;;;10.10;99.90;;;;;;5023347;28;20044;-66
2022/09/24 01:24:39;;;;;;;18.27;9.77;;;10.00;99.90;;;;;;5025849;28;20027;-67
2022/09/24 01:27:16;;;;;;;18.80;10.43;;;10.00;99.90;;;;;;5022467;28;20040;-67
2022/09/24 01:29:52;;;;;;;18.88;10.10;;;10.00;99.90;;;;;;5024417;28;20496;-66
2022/09/24 01:32:36;;;;;;;23.77;10.38;;;9.90;99.90;;;;;;5028193;28;20119;-66
2022/09/24 01:35:30;;;;;;;15.68;9.15;;;9.90;99.90;;;;;;5027115;28;20037;-67
2022/09/24 01:38:11;;;;;;;18.20;10.43;;;9.80;99.90;;;;;;5018172;28;20049;-66
2022/09/24 01:40:39;;;;;;;17.70;10.45;;;9.80;99.90;;;;;;5022841;28;20152;-67
2022/09/24 01:43:06;;;;;;;18.98;10.50;;;9.80;99.90;;;;;;5027249;28;20032;-66
2022/09/24 01:45:34;;;;;;;19.05;10.88;;;9.80;99.90;;;;;;5026427;28;20032;-67
2022/09/24 01:48:00;;;;;;;16.75;10.25;;;9.80;99.90;;;;;;5026217;28;20524;-67
2022/09/24 01:50:31;;;;;;;19.58;11.15;;;9.90;99.90;;;;;;5026005;28;20052;-67
2022/09/24 01:53:15;;;;;;;17.50;10.20;;;9.90;99.90;;;;;;5027337;28;20107;-65
2022/09/24 01:55:48;;;;;;;19.45;10.57;;;9.90;99.90;;;;;;5020552;28;20076;-66
2022/09/24 01:58:22;;;;;;;20.63;10.80;;;9.90;99.90;;;;;;5021628;28;20057;-67
2022/09/24 02:00:52;;;;;;;17.27;10.48;;;9.80;99.90;;;;;;5020795;28;20143;-67
2022/09/24 02:03:24;;;;;;;19.85;10.50;;;9.80;99.90;;;;;;5027630;28;20116;-68
2022/09/24 02:06:07;;;;;;;19.50;11.40;;;9.80;99.90;;;;;;5026215;28;20049;-67
2022/09/24 02:08:38;;;;;;;19.67;11.07;;;9.80;99.90;;;;;;5027101;28;20457;-67
2022/09/24 02:11:14;;;;;;;20.08;11.15;;;9.80;99.90;;;;;;5028218;28;20029;-67
2022/09/24 02:13:45;;;;;;;19.38;10.65;;;9.70;99.90;;;;;;5026688;28;20121;-66
2022/09/24 02:16:15;;;;;;;18.20;11.25;;;9.60;99.90;;;;;;5023904;28;20360;-66
2022/09/24 02:18:45;;;;;;;19.67;11.50;;;9.60;99.90;;;;;;5026198;28;20036;-68
2022/09/24 02:21:14;;;;;;;19.25;11.27;;;9.50;99.90;;;;;;5021861;28;20160;-64
2022/09/24 02:24:05;;;;;;;20.65;10.93;;;9.50;99.90;;;;;;5026900;28;20025;-67
2022/09/24 02:26:31;;;;;;;21.83;11.40;;;9.50;99.90;;;;;;5014676;28;20048;-67
2022/09/24 02:28:58;;;;;;;21.10;12.23;;;9.40;99.90;;;;;;5026957;28;20049;-65
2022/09/24 02:31:30;;;;;;;21.70;11.77;;;9.40;99.90;;;;;;5025801;28;20035;-71
2022/09/24 02:36:42;;;;;;;19.98;11.68;;;9.40;99.90;;;;;;5029852;28;20032;-66
2022/09/24 02:39:08;;;;;;;22.15;10.65;;;9.50;99.90;;;;;;5029796;28;20030;-67
2022/09/24 02:41:34;;;;;;;18.70;11.15;;;9.40;99.90;;;;;;5030423;28;20083;-67
2022/09/24 02:44:00;;;;;;;18.55;10.75;;;9.30;99.90;;;;;;5029072;28;20053;-67
2022/09/24 02:46:26;;;;;;;18.25;10.90;;;9.30;99.90;;;;;;5030612;28;20371;-71
2022/09/24 02:48:52;;;;;;;22.80;11.45;;;9.30;99.90;;;;;;5030103;28;20088;-67
2022/09/24 02:51:17;;;;;;;23.00;12.00;;;9.30;99.90;;;;;;5029720;28;20037;-67
2022/09/24 02:53:43;;;;;;;19.98;11.77;;;9.30;99.90;;;;;;5029934;28;20469;-67
2022/09/24 02:56:10;;;;;;;24.15;12.35;;;9.30;99.90;;;;;;5030558;28;20033;-67
2022/09/24 02:58:36;;;;;;;23.58;12.07;;;9.30;99.90;;;;;;5027754;28;20036;-66
2022/09/24 03:01:04;;;;;;;21.20;11.57;;;9.30;99.90;;;;;;5029806;28;20033;-64
2022/09/24 03:03:30;;;;;;;21.67;11.60;;;9.30;99.90;;;;;;5030527;28;20037;-71
2022/09/24 03:05:55;;;;;;;21.70;11.20;;;9.30;99.90;;;;;;5029880;28;20104;-67
2022/09/24 03:08:23;;;;;;;20.85;10.98;;;9.30;99.90;;;;;;5030225;28;20152;-66
2022/09/24 03:10:49;;;;;;;19.75;11.73;;;9.30;99.90;;;;;;5029696;28;20123;-67
2022/09/24 03:13:18;;;;;;;22.67;11.43;;;9.30;99.90;;;;;;5030843;28;20148;-66
2022/09/24 03:15:45;;;;;;;22.58;11.38;;;9.30;99.90;;;;;;5027720;28;20037;-66
2022/09/24 03:18:11;;;;;;;18.65;10.27;;;9.30;99.90;;;;;;5030728;28;20025;-66
2022/09/24 03:20:36;;;;;;;21.23;10.40;;;9.20;99.90;;;;;;5027246;28;20064;-68
2022/09/24 03:23:02;;;;;;;19.45;10.57;;;9.20;99.90;;;;;;5031624;28;20143;-68
2022/09/24 03:25:28;;;;;;;17.67;10.52;;;9.00;99.90;;;;;;5027820;28;20040;-69
2022/09/24 03:27:54;;;;;;;16.85;10.07;;;9.00;99.90;;;;;;5030214;28;20033;-67
2022/09/24 03:33:04;;;;;;;20.85;11.05;;;9.00;99.90;;;;;;5030077;28;20060;-67
2022/09/24 03:35:29;;;;;;;19.73;10.90;;;9.00;99.90;;;;;;5026461;28;20025;-71
2022/09/24 03:37:55;;;;;;;22.13;10.65;;;9.10;99.90;;;;;;5030126;28;20036;-66
2022/09/24 03:40:21;;;;;;;21.67;10.93;;;9.10;99.90;;;;;;5029720;28;20128;-67
2022/09/24 03:42:47;;;;;;;23.17;10.73;;;9.10;99.90;;;;;;5029431;28;20028;-68
2022/09/24 03:45:12;;;;;;;19.70;10.75;;;9.20;99.90;;;;;;5029572;28;20450;-67
2022/09/24 03:47:39;;;;;;;22.88;10.77;;;9.20;99.90;;;;;;5029376;28;20033;-68
2022/09/24 03:50:05;;;;;;;16.10;10.25;;;9.20;99.90;;;;;;5026495;28;20421;-67
2022/09/24 03:52:31;;;;;;;16.63;10.20;;;9.20;99.90;;;;;;5029417;28;20070;-69
2022/09/24 03:54:57;;;;;;;18.30;10.65;;;9.30;99.90;;;;;;5028606;28;20060;-66
2022/09/24 03:57:23;;;;;;;22.20;10.88;;;9.30;99.90;;;;;;5029567;28;20037;-67
2022/09/24 03:59:48;;;;;;;17.85;10.48;;;9.30;99.90;;;;;;5027255;28;20017;-67
2022/09/24 04:02:14;;;;;;;18.83;10.45;;;9.30;99.90;;;;;;5028896;28;20037;-66
2022/09/24 04:04:39;;;;;;;16.25;10.23;;;9.20;99.90;;;;;;5026434;28;20045;-67
2022/09/24 04:07:05;;;;;;;20.80;10.55;;;9.10;99.90;;;;;;5022109;28;20386;-66
2022/09/24 04:09:31;;;;;;;19.98;9.75;;;9.20;99.90;;;;;;5020888;28;20040;-71
2022/09/24 04:11:57;;;;;;;18.55;10.70;;;9.10;99.90;;;;;;5029105;28;20045;-65
2022/09/24 04:14:23;;;;;;;20.40;10.77;;;9.10;99.90;;;;;;5032094;28;20021;-69
2022/09/24 04:16:49;;;;;;;17.60;10.30;;;9.10;99.90;;;;;;5031321;28;20037;-66
2022/09/24 04:19:15;;;;;;;18.45;11.13;;;9.00;99.90;;;;;;5029961;28;20036;-65
2022/09/24 04:21:42;;;;;;;21.42;10.20;;;9.10;99.90;;;;;;5032066;28;20071;-66
2022/09/24 04:24:08;;;;;;;20.85;11.07;;;9.20;99.90;;;;;;5030274;28;20053;-67
2022/09/24 04:26:33;;;;;;;22.48;9.88;;;9.20;99.90;;;;;;5031979;28;20102;-67
2022/09/24 04:28:59;;;;;;;19.17;11.00;;;9.20;99.90;;;;;;5026964;28;20033;-67
2022/09/24 04:31:26;;;;;;;18.88;10.38;;;9.20;99.90;;;;;;5029167;28;20051;-66
2022/09/24 04:33:52;;;;;;;16.10;9.68;;;9.10;99.90;;;;;;5024807;28;20355;-65
2022/09/24 04:36:18;;;;;;;18.50;9.93;;;9.10;99.90;;;;;;5023939;28;20036;-66
2022/09/24 04:38:45;;;;;;;19.52;10.60;;;9.10;99.90;;;;;;5031232;28;20044;-66
2022/09/24 04:41:11;;;;;;;19.27;10.77;;;9.10;99.90;;;;;;5031216;28;20029;-65
2022/09/24 04:43:37;;;;;;;21.42;11.23;;;9.20;99.90;;;;;;5027768;28;20454;-66
2022/09/24 04:46:03;;;;;;;18.73;10.77;;;9.10;99.90;;;;;;5029041;28;20198;-67
2022/09/24 04:48:29;;;;;;;18.27;9.77;;;9.10;99.90;;;;;;5029711;28;20037;-66
2022/09/24 04:50:55;;;;;;;18.23;10.25;;;9.10;99.90;;;;;;5028411;28;20056;-66
2022/09/24 04:53:22;;;;;;;15.93;10.10;;;9.10;99.90;;;;;;5029337;28;20034;-67
2022/09/24 04:55:47;;;;;;;20.38;10.93;;;9.10;99.90;;;;;;5029591;28;20037;-68
2022/09/24 04:58:13;;;;;;;19.80;10.75;;;9.10;99.90;;;;;;5031400;28;20126;-67
2022/09/24 05:00:40;;;;;;;18.30;11.05;;;9.10;99.90;;;;;;5027747;28;20037;-65
2022/09/24 05:03:06;;;;;;;18.77;11.02;;;9.10;99.90;;;;;;5029854;28;20041;-68
2022/09/24 05:05:32;;;;;;;18.17;10.82;;;9.20;99.90;;;;;;5028554;28;20044;-66
2022/09/24 05:08:00;;;;;;;21.15;12.20;;;9.20;99.90;;;;;;5026194;28;20041;-70
2022/09/24 05:10:26;;;;;;;19.80;10.95;;;9.10;99.90;;;;;;5029841;28;20049;-66
2022/09/24 05:12:52;;;;;;;22.70;12.60;;;9.00;99.90;;;;;;5027185;28;20835;-67
2022/09/24 05:15:18;;;;;;;20.88;11.23;;;9.00;99.90;;;;;;5027960;28;20044;-68
2022/09/24 05:17:44;;;;;;;17.67;10.40;;;9.00;99.90;;;;;;5031075;28;20026;-67
2022/09/24 05:20:10;;;;;;;19.63;11.07;;;9.10;99.90;;;;;;5028961;28;20060;-66
2022/09/24 05:22:40;;;;;;;19.52;10.95;;;9.10;99.90;;;;;;5030507;28;20040;-68
2022/09/24 05:25:06;;;;;;;17.30;10.68;;;9.10;99.90;;;;;;5028569;28;20029;-67
2022/09/24 05:27:32;;;;;;;17.42;10.00;;;9.10;99.90;;;;;;5027489;28;20040;-67
2022/09/24 05:29:59;;;;;;;23.52;10.75;;;9.10;99.90;;;;;;5025806;28;20572;-68
2022/09/24 05:32:25;;;;;;;20.83;9.90;;;9.10;99.90;;;;;;5029861;28;20061;-66
2022/09/24 05:34:52;;;;;;;16.13;9.68;;;9.20;99.90;;;;;;5029018;28;20029;-65
2022/09/24 05:37:18;;;;;;;18.65;10.73;;;9.20;99.90;;;;;;5028841;28;20064;-67
2022/09/24 05:39:44;;;;;;;24.35;11.10;;;9.20;99.90;;;;;;5029986;28;20398;-67
2022/09/24 05:42:13;;;;;;;22.60;12.13;;;9.30;99.90;;;;;;5029270;28;20039;-67
2022/09/24 05:52:51;;;;;;;22.73;11.65;;;9.30;99.90;;;;;;3715839;22;20024;-66
2022/09/24 05:55:17;;;;;;;18.55;11.52;;;9.30;99.90;;;;;;4994553;28;20054;-68
2022/09/24 05:57:43;;;;;;;19.58;11.70;;;9.40;99.90;;;;;;4990032;28;20085;-72
2022/09/24 06:00:09;;;;;;;19.60;11.93;;;9.40;99.90;;;;;;4988794;28;20030;-65
2022/09/24 06:02:34;;;;;;;17.80;11.10;;;9.40;99.90;;;;;;4986191;28;20058;-67
2022/09/24 06:05:00;;;;;;;18.02;11.20;;;9.30;99.90;;;;;;4987017;28;20061;-67
2022/09/24 06:07:26;;;;;;;17.42;10.30;;;9.30;99.90;;;;;;4991149;28;20023;-68
2022/09/24 06:09:51;;;;;;;18.35;10.82;;;9.40;99.90;;;;;;4991470;28;20026;-65
2022/09/24 06:12:17;;;;;;;19.50;10.43;;;9.40;99.90;;;;;;4991996;28;20097;-69
2022/09/24 06:14:43;;;;;;;18.83;10.38;;;9.40;99.90;;;;;;4981752;28;20130;-70
2022/09/24 06:17:09;;;;;;;18.63;11.10;;;9.40;99.90;;;;;;4993136;28;20061;-68
2022/09/24 06:19:35;;;;;;;19.48;10.45;;;9.40;99.90;;;;;;4992438;28;20030;-65
2022/09/24 06:22:01;;;;;;;19.60;11.25;;;9.50;99.90;;;;;;4989518;28;20097;-66
2022/09/24 06:24:26;;;;;;;20.13;10.57;;;9.50;99.90;;;;;;4992981;28;20117;-66
2022/09/24 06:26:52;;;;;;;20.75;11.27;;;9.60;99.90;;;;;;4973750;28;20038;-66
2022/09/24 06:29:17;;;;;;;23.40;11.70;;;9.70;99.90;;;;;;4993503;28;20104;-68
2022/09/24 06:31:44;;;;;;;20.70;10.98;;;9.80;99.90;;;;;;4991050;28;20049;-72
2022/09/24 06:34:10;;;;;;;18.77;11.18;;;9.80;99.90;;;;;;4991086;28;20026;-71
2022/09/24 06:36:36;;;;;;;19.40;11.73;;;9.90;99.90;;;;;;4987751;28;20034;-67
2022/09/24 06:39:02;;;;;;;21.65;11.52;;;10.00;99.90;;;;;;4990154;28;20553;-66
2022/09/24 06:41:27;;;;;;;24.75;11.52;;;10.10;99.90;;;;;;4988438;28;20081;-67
2022/09/24 06:43:54;;;;;;;20.35;11.15;;;10.20;99.90;;;;;;4989147;28;21677;-68
2022/09/24 06:46:21;;;;;;;19.15;11.18;;;10.20;99.90;;;;;;4989576;28;20037;-67
2022/09/24 06:48:48;;;;;;;19.58;10.63;;;10.20;99.90;;;;;;4987553;28;20023;-71
2022/09/24 06:51:13;;;;;;;24.05;11.70;;;10.20;99.90;;;;;;4985163;28;20042;-67
2022/09/24 06:53:39;;;;;;;18.23;10.70;;;10.20;99.90;;;;;;4990395;28;20065;-66
2022/09/24 06:56:05;;;;;;;18.67;10.88;;;10.20;99.90;;;;;;4991046;28;20102;-66
2022/09/24 06:58:32;;;;;;;19.85;11.38;;;10.20;99.90;;;;;;4970472;28;20588;-64
2022/09/24 07:01:01;;;;;;;23.10;12.57;;;10.40;99.90;;;;;;5003707;28;20109;-69
2022/09/24 07:03:28;;;;;;;22.20;12.32;;;10.50;99.90;;;;;;4975687;28;20026;-66
2022/09/24 07:05:54;;;;;;;22.88;12.52;;;10.50;99.90;;;;;;4989922;28;20038;-68
2022/09/24 07:08:20;;;;;;;22.92;10.80;;;10.50;99.90;;;;;;4987951;28;20533;-64
2022/09/24 07:10:48;;;;;;;20.05;12.02;;;10.40;99.90;;;;;;4988164;28;20034;-69
2022/09/24 07:13:14;;;;;;;24.58;11.27;;;10.50;99.90;;;;;;4988393;28;20156;-67
2022/09/24 07:15:41;;;;;;;28.38;12.30;;;10.70;99.90;;;;;;4986368;28;20034;-66
2022/09/24 07:18:07;;;;;;;23.45;13.55;;;10.80;99.90;;;;;;4987628;28;20057;-66
2022/09/24 07:20:35;;;;;;;21.45;12.43;;;11.10;99.90;;;;;;4988635;28;20532;-68
2022/09/24 07:23:05;;;;;;;22.17;12.75;;;11.20;99.90;;;;;;4985712;28;20367;-67
2022/09/24 07:25:30;;;;;;;25.48;13.07;;;11.40;99.90;;;;;;4990299;28;20579;-67
2022/09/24 07:28:03;;;;;;;26.13;13.18;;;11.50;99.90;;;;;;4991310;28;20035;-66
2022/09/24 07:30:29;;;;;;;25.50;12.55;;;11.60;99.90;;;;;;4989588;28;20378;-67
2022/09/24 07:32:55;;;;;;;24.90;13.25;;;11.60;99.90;;;;;;4991238;28;20033;-65
2022/09/24 07:35:22;;;;;;;23.73;12.68;;;11.50;99.90;;;;;;4989360;28;20030;-66
2022/09/24 07:37:48;;;;;;;27.48;13.18;;;11.60;99.90;;;;;;4990207;28;20033;-71
2022/09/24 07:40:13;;;;;;;23.10;14.05;;;11.60;99.90;;;;;;4989742;28;20034;-69
2022/09/24 07:42:46;;;;;;;23.15;13.95;;;11.70;99.90;;;;;;4972535;28;20496;-66
2022/09/24 07:45:12;;;;;;;24.10;13.88;;;11.70;99.90;;;;;;4971862;28;20031;-67
2022/09/24 07:47:38;;;;;;;27.90;13.85;;;11.80;99.90;;;;;;4976095;28;20436;-68
2022/09/24 07:50:04;;;;;;;30.52;13.98;;;11.90;99.90;;;;;;4972237;28;20034;-67
2022/09/24 07:52:30;;;;;;;23.33;13.90;;;12.00;99.90;;;;;;4991740;28;20053;-67
2022/09/24 07:54:55;;;;;;;25.27;14.48;;;12.00;99.90;;;;;;4989891;28;20054;-68
2022/09/24 07:57:21;;;;;;;25.92;14.55;;;12.00;99.90;;;;;;4990997;28;20105;-66
2022/09/24 07:59:47;;;;;;;26.52;15.05;;;12.10;99.90;;;;;;4988356;28;20026;-71
2022/09/24 08:02:17;;;;;;;30.92;14.98;;;12.10;99.90;;;;;;4991104;28;20633;-67
2022/09/24 08:04:43;;;;;;;25.50;14.82;;;12.20;99.90;;;;;;4990798;28;20169;-67
2022/09/24 08:07:10;;;;;;;25.33;15.32;;;12.30;99.90;;;;;;4990430;28;20058;-67
2022/09/24 08:09:36;;;;;;;29.95;15.55;;;12.30;99.90;;;;;;4989945;28;20054;-67
2022/09/24 08:12:02;;;;;;;29.33;15.80;;;12.40;99.90;;;;;;4990405;28;20363;-66
2022/09/24 08:14:28;;;;;;;31.42;16.30;;;12.40;99.90;;;;;;4990756;28;20030;-68
2022/09/24 08:16:53;;;;;;;27.60;16.00;;;12.40;99.90;;;;;;4990518;28;20027;-68
2022/09/24 08:19:19;;;;;;;33.85;16.48;;;12.50;99.90;;;;;;4989177;28;20382;-66
2022/09/24 08:21:47;;;;;;;28.92;16.88;;;12.50;99.90;;;;;;4991072;28;20036;-65
2022/09/24 08:24:14;;;;;;;35.00;17.98;;;12.60;99.90;;;;;;4987942;28;20121;-68
2022/09/24 08:26:40;;;;;;;29.92;16.77;;;12.70;99.90;;;;;;4989815;28;20033;-67
2022/09/24 08:29:06;;;;;;;33.42;16.77;;;12.70;99.90;;;;;;4989019;28;20022;-67
2022/09/24 08:31:33;;;;;;;29.48;15.50;;;12.80;99.90;;;;;;4990183;28;20034;-65
2022/09/24 08:34:00;;;;;;;29.73;15.85;;;12.90;99.90;;;;;;4989184;28;20034;-65
2022/09/24 08:36:26;;;;;;;25.50;14.68;;;12.90;99.90;;;;;;4988876;28;20027;-67
2022/09/24 08:38:55;;;;;;;26.48;15.02;;;13.00;99.90;;;;;;4988743;28;20041;-71
2022/09/24 08:41:38;;;;;;;26.02;13.75;;;13.00;99.90;;;;;;4990812;28;20057;-65
2022/09/24 08:47:21;;;;;;;20.52;12.70;;;12.90;99.90;;;;;;4988892;28;20113;-65
2022/09/24 08:47:24;;;;;;;29.20;13.48;;;12.90;99.90;;;;;;4987693;28;20046;-70
2022/09/24 08:50:11;;;;;;;24.77;13.60;;;13.00;99.90;;;;;;4987072;28;20034;-67
2022/09/24 08:53:03;;;;;;;23.77;13.82;;;13.00;99.90;;;;;;4984034;28;20069;-67
2022/09/24 08:55:59;;;;;;;23.80;13.48;;;13.10;99.90;;;;;;4965694;28;20074;-68
2022/09/24 08:59:06;;;;;;;23.40;13.40;;;13.10;99.90;;;;;;4960956;28;20097;-71
2022/09/24 09:01:37;;;;;;;23.30;13.27;;;13.10;99.90;;;;;;4922323;29;20192;-63
2022/09/24 09:04:31;;;;;;;24.30;13.88;;;13.10;99.90;;;;;;4967128;28;20125;-68
2022/09/24 09:07:17;;;;;;;28.42;15.18;;;13.10;99.90;;;;;;4965215;28;20306;-74
2022/09/24 09:10:06;;;;;;;25.80;12.70;;;13.20;99.90;;;;;;4982800;28;20042;-69
2022/09/24 09:12:39;;;;;;;24.15;14.60;;;13.30;99.90;;;;;;4982157;28;20048;-66
2022/09/24 09:15:23;;;;;;;23.13;13.77;;;13.30;99.90;;;;;;4982619;28;20042;-69
2022/09/24 09:17:55;;;;;;;25.92;14.32;;;13.40;99.90;;;;;;4984353;28;20475;-69
2022/09/24 09:20:29;;;;;;;22.77;13.30;;;13.40;99.90;;;;;;4983077;28;20063;-67
2022/09/24 09:22:59;;;;;;;27.80;14.05;;;13.60;99.90;;;;;;4984536;28;20030;-68
2022/09/24 09:25:28;;;;;;;25.50;13.82;;;13.60;99.90;;;;;;4983062;28;20070;-68
2022/09/24 09:28:14;;;;;;;28.93;14.40;;;13.60;99.90;;;;;;4982267;28;20034;-71
2022/09/24 09:30:54;;;;;;;22.13;13.32;;;13.70;99.90;;;;;;4981704;28;20121;-68
2022/09/24 09:33:44;;;;;;;29.27;14.97;;;13.70;99.90;;;;;;4966147;28;20035;-66
2022/09/24 09:36:31;;;;;;;27.35;13.32;;;13.80;99.90;;;;;;4980254;28;20034;-70
2022/09/24 09:39:49;;;;;;;19.48;12.65;;;13.80;99.90;;;;;;4981311;28;20046;-72
2022/09/24 09:42:39;;;;;;;22.40;13.43;;;13.90;99.90;;;;;;4932612;28;20050;-68
2022/09/24 09:45:31;;;;;;;22.02;12.25;;;14.00;99.90;;;;;;4988073;28;20030;-71
2022/09/24 09:47:58;;;;;;;22.77;13.50;;;14.10;99.90;;;;;;4986730;28;20402;-71
2022/09/24 09:50:41;;;;;;;20.58;12.57;;;14.10;99.90;;;;;;4992758;28;20054;-68
2022/09/24 09:53:24;;;;;;;23.85;12.75;;;14.10;99.90;;;;;;4984451;28;20045;-69
2022/09/24 09:55:55;;;;;;;23.70;11.98;;;14.20;99.90;;;;;;4987599;28;21084;-68
2022/09/24 09:58:26;;;;;;;22.65;12.27;;;14.40;99.90;;;;;;4986027;28;20150;-67
2022/09/24 10:01:09;;;;;;;26.05;12.30;;;14.40;99.90;;;;;;4986885;28;20212;-68
2022/09/24 10:03:43;;;;;;;23.85;12.18;;;14.30;99.90;;;;;;4987278;28;20034;-70
2022/09/24 10:06:12;;;;;;;20.02;11.90;;;14.40;99.90;;;;;;4985255;28;20058;-67
2022/09/24 10:08:39;;;;;;;21.45;11.93;;;14.40;99.90;;;;;;4983586;28;20093;-69
2022/09/24 10:11:06;;;;;;;20.58;11.23;;;14.50;99.90;;;;;;4967586;28;20073;-71
2022/09/24 10:13:33;;;;;;;20.23;11.77;;;14.60;99.90;;;;;;4988143;28;20048;-67
2022/09/24 10:16:03;;;;;;;17.20;11.07;;;14.70;99.90;;;;;;4987806;28;20042;-70
2022/09/24 10:18:42;;;;;;;17.33;9.25;;;14.80;99.90;;;;;;4984702;28;20034;-71
2022/09/24 10:21:12;;;;;;;18.88;10.32;;;14.80;99.90;;;;;;4985361;28;20042;-70
2022/09/24 10:23:43;;;;;;;17.92;8.93;;;14.90;99.90;;;;;;4968285;28;20442;-70
2022/09/24 10:26:09;;;;;;;15.77;9.80;;;14.90;99.90;;;;;;4985670;28;20038;-70
2022/09/24 10:31:34;;;;;;;15.68;9.10;;;15.10;99.90;;;;;;4985957;28;20129;-68
2022/09/24 10:34:01;;;;;;;15.15;8.65;;;15.10;99.90;;;;;;4971019;28;20451;-71
2022/09/24 10:36:33;;;;;;;19.02;9.55;;;15.10;99.90;;;;;;4985527;28;20034;-69
2022/09/24 10:39:02;;;;;;;14.43;8.75;;;15.10;99.90;;;;;;4969055;28;20069;-72
2022/09/24 10:41:30;;;;;;;14.40;8.52;;;15.10;99.90;;;;;;4991253;28;20034;-68
2022/09/24 10:44:01;;;;;;;14.32;7.80;;;15.20;99.90;;;;;;4986559;28;20090;-68
2022/09/24 10:47:11;;;;;;;15.02;8.32;;;15.10;99.90;;;;;;4991851;28;20041;-68
2022/09/24 10:49:39;;;;;;;15.55;8.55;;;15.10;99.90;;;;;;4991103;28;20085;-69
2022/09/24 10:52:09;;;;;;;14.30;8.38;;;15.00;99.90;;;;;;4990339;28;20410;-69
2022/09/24 10:54:59;;;;;;;14.10;8.75;;;15.10;99.90;;;;;;4990365;28;20058;-68
2022/09/24 10:57:44;;;;;;;13.07;7.82;;;15.10;99.90;;;;;;4989260;28;20088;-69
2022/09/24 11:00:39;;;;;;;15.13;8.30;;;15.10;99.90;;;;;;4982820;28;20149;-68
2022/09/24 11:03:05;;;;;;;12.77;7.90;;;15.30;99.90;;;;;;4960684;28;20499;-67
2022/09/24 11:05:38;;;;;;;17.15;7.80;;;15.30;99.90;;;;;;4985971;28;20058;-68
2022/09/24 11:08:40;;;;;;;11.77;7.60;;;15.30;99.90;;;;;;4989560;28;20815;-68
2022/09/24 11:11:27;;;;;;;15.10;7.35;;;15.30;99.90;;;;;;4986987;28;20128;-68
2022/09/24 11:13:58;;;;;;;14.30;6.32;;;15.20;99.90;;;;;;4988623;28;20113;-67
2022/09/24 11:16:45;;;;;;;10.45;6.10;;;15.20;99.90;;;;;;4989115;28;20113;-67
2022/09/24 11:19:22;;;;;;;12.45;6.72;;;15.30;99.90;;;;;;4988817;28;20034;-70
2022/09/24 11:22:11;;;;;;;11.18;6.10;;;15.30;99.90;;;;;;4991031;28;20040;-67
2022/09/24 11:25:08;;;;;;;13.32;6.65;;;15.20;99.90;;;;;;4971467;28;20030;-66
2022/09/24 11:27:42;;;;;;;9.88;5.70;;;15.20;99.90;;;;;;4982595;28;20030;-69
2022/09/24 11:30:19;;;;;;;12.00;6.30;;;15.30;99.90;;;;;;4989601;28;20026;-68
2022/09/24 11:33:13;;;;;;;13.43;5.85;;;15.40;99.90;;;;;;4990658;28;20137;-69
2022/09/24 11:36:09;;;;;;;13.25;6.10;;;15.30;99.90;;;;;;4982433;28;20038;-69
2022/09/24 11:39:21;;;;;;;11.63;5.95;;;15.30;99.90;;;;;;4987290;28;20031;-68
2022/09/24 11:41:49;;;;;;;8.80;5.78;;;15.40;99.90;;;;;;4908889;29;20107;-70
2022/09/24 11:44:25;;;;;;;10.77;5.75;;;15.50;99.90;;;;;;4969589;28;20081;-71
2022/09/24 11:47:15;;;;;;;8.75;5.80;;;15.40;99.90;;;;;;4988257;28;20435;-68
2022/09/24 11:49:47;;;;;;;11.63;5.93;;;15.40;99.90;;;;;;4983164;28;20022;-67
2022/09/24 11:52:25;;;;;;;9.95;5.60;;;15.50;99.90;;;;;;4985071;28;20205;-67
2022/09/24 11:55:21;;;;;;;10.95;6.57;;;15.60;99.90;;;;;;4988367;28;20050;-70
2022/09/24 11:58:16;;;;;;;13.90;6.38;;;15.60;99.90;;;;;;4972137;28;20027;-68
2022/09/24 12:01:06;;;;;;;11.52;5.97;;;15.80;99.90;;;;;;4970327;28;20053;-67
2022/09/24 12:03:32;;;;;;;9.18;5.55;;;16.00;99.90;;;;;;4989133;28;20030;-70
2022/09/24 12:06:09;;;;;;;8.65;5.38;;;16.00;99.90;;;;;;4987148;28;20036;-70
2022/09/24 12:08:46;;;;;;;11.60;5.25;;;16.10;99.90;;;;;;4989921;28;20042;-67
2022/09/24 12:11:14;;;;;;;10.63;5.22;;;16.10;99.90;;;;;;4988428;28;20513;-68
2022/09/24 12:13:54;;;;;;;9.73;5.53;;;16.10;99.90;;;;;;4988962;28;20462;-69
2022/09/24 12:16:35;;;;;;;10.70;5.55;;;16.10;99.90;;;;;;4976590;28;20534;-70
2022/09/24 12:19:04;;;;;;;11.02;5.90;;;16.00;99.90;;;;;;4990114;28;20117;-67
2022/09/24 12:21:35;;;;;;;9.10;5.70;;;15.70;99.90;;;;;;4988352;28;20030;-71
2022/09/24 12:24:26;;;;;;;9.80;5.88;;;15.80;99.90;;;;;;4989541;28;20034;-68
2022/09/24 12:26:56;;;;;;;9.15;5.50;;;15.70;99.90;;;;;;4981096;28;20148;-66
2022/09/24 12:32:54;;;;;;;9.98;5.93;;;15.40;99.90;;;;;;4988476;28;20042;-68
2022/09/24 12:35:44;;;;;;;12.30;6.15;;;15.30;99.90;;;;;;4988064;28;20042;-68
2022/09/24 12:38:18;;;;;;;10.60;5.88;;;15.30;99.90;;;;;;4981613;28;20126;-69
2022/09/24 12:41:07;;;;;;;13.30;6.20;;;15.20;99.90;;;;;;4987412;28;20386;-68
2022/09/24 12:43:44;;;;;;;9.37;5.70;;;15.20;99.90;;;;;;4986887;28;20488;-69
2022/09/24 12:46:23;;;;;;;11.40;6.32;;;15.20;99.90;;;;;;4983932;28;20034;-69
2022/09/24 12:48:51;;;;;;;11.45;6.57;;;15.30;99.90;;;;;;4987916;28;20041;-70
2022/09/24 12:51:21;;;;;;;11.93;6.85;;;15.30;99.90;;;;;;4987135;28;20034;-70
2022/09/24 12:54:07;;;;;;;11.10;6.85;;;15.20;99.90;;;;;;4985793;28;20034;-69
2022/09/24 12:56:33;;;;;;;10.68;6.68;;;15.10;99.90;;;;;;4990054;28;20038;-69
2022/09/24 12:59:04;;;;;;;10.75;6.95;;;15.10;99.90;;;;;;4985349;28;20510;-67
2022/09/24 13:01:31;;;;;;;12.93;7.13;;;15.10;99.90;;;;;;4991402;28;20053;-70
2022/09/24 13:04:20;;;;;;;12.85;7.03;;;15.00;99.90;;;;;;4972541;28;20038;-69
2022/09/24 13:06:48;;;;;;;13.55;7.38;;;15.00;99.90;;;;;;4974623;28;20100;-72
2022/09/24 13:09:37;;;;;;;15.27;7.20;;;14.90;99.90;;;;;;4988141;28;20474;-68
2022/09/24 13:12:17;;;;;;;12.65;7.88;;;14.90;99.90;;;;;;4986441;28;20066;-68
2022/09/24 13:15:07;;;;;;;18.90;7.82;;;14.90;99.90;;;;;;4986152;28;20102;-67
2022/09/24 13:17:34;;;;;;;14.90;8.65;;;14.90;99.90;;;;;;4984573;28;20199;-67
2022/09/24 13:20:08;;;;;;;12.27;8.32;;;14.90;99.90;;;;;;4970467;28;20030;-67